createdAt,value
2019-04-21T00:00:52.389Z,56.20
2019-04-21T00:04:19.704Z,56.10
2019-04-21T00:07:14.522Z,56.10
2019-04-21T00:10:16.758Z,58.20
2019-04-21T00:12:58.353Z,57.80
2019-04-21T00:15:36.652Z,55.50
2019-04-21T00:18:54.841Z,55.70
2019-04-21T00:23:09.465Z,56.30
2019-04-21T00:25:09.018Z,56.30
2019-04-21T00:28:03.179Z,56.30
2019-04-21T00:31:12.775Z,56.20
2019-04-21T00:34:19.572Z,56.80
2019-04-21T00:40:56.578Z,57.30
2019-04-21T00:43:50.913Z,56.40
2019-04-21T00:46:44.629Z,56.70
2019-04-21T00:49:44.654Z,57.30
2019-04-21T00:53:04.716Z,56.70
2019-04-21T00:56:05.293Z,57.10
2019-04-21T00:58:49.867Z,57.40
2019-04-21T01:01:42.589Z,58.00
2019-04-21T01:04:55.312Z,57.40
2019-04-21T01:07:42.013Z,56.90
2019-04-21T01:17:59.376Z,57.50
2019-04-21T01:20:33.183Z,58.00
2019-04-21T01:23:48.615Z,58.10
2019-04-21T01:26:52.506Z,58.30
2019-04-21T01:30:08.564Z,58.00
2019-04-21T01:33:07.232Z,58.90
2019-04-21T01:36:24.265Z,58.40
2019-04-21T01:39:32.393Z,58.70
2019-04-21T01:42:04.950Z,58.40
2019-04-21T01:44:56.804Z,58.70
2019-04-21T01:47:17.375Z,58.80
2019-04-21T01:50:02.394Z,58.60
2019-04-21T01:52:58.962Z,59.70
2019-04-21T01:55:54.132Z,60.10
2019-04-21T01:58:51.722Z,60.80
2019-04-21T02:01:48.857Z,61.10
2019-04-21T02:04:34.684Z,60.90
2019-04-21T02:07:15.064Z,62.10
2019-04-21T02:10:22.552Z,62.70
2019-04-21T02:13:01.679Z,62.60
2019-04-21T02:15:55.513Z,63.30
2019-04-21T02:18:18.814Z,63.40
2019-04-21T02:20:53.873Z,63.60
2019-04-21T02:23:46.495Z,64.10
2019-04-21T02:26:37.502Z,64.00
2019-04-21T02:29:29.143Z,64.00
2019-04-21T02:32:11.413Z,64.30
2019-04-21T02:34:57.465Z,65.00
2019-04-21T02:37:44.592Z,65.50
2019-04-21T02:40:17.505Z,65.50
2019-04-21T02:43:07.547Z,65.50
2019-04-21T02:45:51.666Z,66.60
2019-04-21T02:48:39.094Z,66.20
2019-04-21T02:51:21.842Z,67.30
2019-04-21T02:54:31.512Z,67.40
2019-04-21T02:56:51.469Z,66.70
2019-04-21T02:59:33.811Z,67.10
2019-04-21T03:02:37.788Z,67.90
2019-04-21T03:05:28.779Z,68.20
2019-04-21T03:08:14.381Z,67.80
2019-04-21T03:13:42.177Z,68.00
2019-04-21T03:18:48.216Z,67.30
2019-04-21T03:21:29.069Z,67.60
2019-04-21T03:24:13.404Z,67.00
2019-04-21T03:27:03.498Z,67.10
2019-04-21T03:29:37.133Z,67.50
2019-04-21T03:35:33.813Z,68.10
2019-04-21T03:37:39.872Z,67.90
2019-04-21T03:40:14.950Z,67.70
2019-04-21T03:42:59.460Z,68.30
2019-04-21T03:45:44.451Z,68.30
2019-04-21T03:48:20.208Z,68.90
2019-04-21T03:50:58.693Z,69.80
2019-04-21T03:53:46.472Z,69.60
2019-04-21T03:56:45.366Z,70.50
2019-04-21T04:05:20.922Z,70.60
2019-04-21T04:08:26.597Z,70.70
2019-04-21T04:10:50.090Z,71.10
2019-04-21T04:16:20.409Z,72.30
2019-04-21T04:21:45.104Z,73.80
2019-04-21T04:24:16.905Z,75.10
2019-04-21T04:34:50.725Z,74.10
2019-04-21T04:37:32.116Z,74.90
2019-04-21T04:40:31.370Z,75.10
2019-04-21T04:43:23.038Z,75.60
2019-04-21T04:54:32.363Z,79.00
2019-04-21T04:57:07.892Z,80.20
2019-04-21T05:02:46.416Z,81.20
2019-04-21T05:06:24.070Z,81.80
2019-04-21T05:12:03.501Z,78.60
2019-04-21T05:14:59.610Z,73.30
2019-04-21T05:17:50.799Z,71.00
2019-04-21T05:21:16.054Z,68.50
2019-04-21T05:29:59.502Z,62.30
2019-04-21T05:33:18.785Z,59.80
2019-04-21T05:36:47.387Z,60.80
2019-04-21T05:40:00.628Z,61.30
2019-04-21T05:43:32.446Z,61.30
2019-04-21T05:48:48.719Z,61.70
2019-04-21T05:49:55.690Z,61.20
2019-04-21T05:52:53.665Z,60.20
2019-04-21T05:59:00.656Z,58.40
2019-04-21T06:01:50.222Z,58.70
2019-04-21T06:04:51.786Z,58.20
2019-04-21T06:07:25.792Z,58.10
2019-04-21T06:10:27.358Z,58.00
2019-04-21T06:17:11.326Z,56.70
2019-04-21T06:20:27.427Z,55.60
2019-04-21T06:23:49.766Z,54.30
2019-04-21T06:26:53.849Z,54.70
2019-04-21T06:29:38.319Z,54.10
2019-04-21T06:35:42.905Z,51.40
2019-04-21T06:38:31.042Z,52.40
2019-04-21T06:41:07.897Z,51.10
2019-04-21T06:44:08.435Z,50.60
2019-04-21T06:47:00.891Z,49.30
2019-04-21T06:50:37.690Z,48.80
2019-04-21T06:53:57.836Z,49.20
2019-04-21T06:56:58.520Z,50.50
2019-04-21T07:00:10.130Z,51.20
2019-04-21T07:06:24.345Z,51.40
2019-04-21T07:09:25.496Z,50.00
2019-04-21T07:15:43.455Z,49.60
2019-04-21T07:18:37.538Z,49.70
2019-04-21T07:21:38.666Z,48.40
2019-04-21T07:24:31.939Z,47.10
2019-04-21T07:27:43.079Z,46.80
2019-04-21T07:30:59.087Z,46.60
2019-04-21T07:34:48.324Z,46.60
2019-04-21T07:37:13.912Z,45.20
2019-04-21T07:40:05.416Z,45.40
2019-04-21T07:42:54.181Z,44.20
2019-04-21T07:45:44.455Z,42.90
2019-04-21T07:49:01.699Z,44.00
2019-04-21T07:52:22.274Z,43.20
2019-04-21T07:56:09.236Z,42.50
2019-04-21T07:59:25.582Z,42.20
2019-04-21T08:05:42.379Z,42.70
2019-04-21T08:11:44.206Z,43.40
2019-04-21T08:14:50.680Z,42.40
2019-04-21T08:17:30.269Z,44.10
2019-04-21T08:18:39.537Z,42.20
2019-04-21T08:20:24.653Z,45.00
2019-04-21T08:26:51.807Z,45.60
2019-04-21T08:33:07.020Z,43.10
2019-04-21T08:36:13.008Z,42.60
2019-04-21T08:41:30.054Z,41.40
2019-04-21T08:44:35.267Z,41.80
2019-04-21T08:48:02.729Z,43.20
2019-04-21T08:54:52.123Z,43.20
2019-04-21T09:01:38.257Z,42.70
2019-04-21T09:04:59.143Z,41.40
2019-04-21T09:08:13.429Z,41.80
2019-04-21T09:11:24.051Z,39.70
2019-04-21T09:18:04.982Z,40.80
2019-04-21T09:21:31.768Z,40.90
2019-04-21T09:24:51.912Z,40.50
2019-04-21T09:28:18.329Z,39.80
2019-04-21T09:31:04.633Z,38.90
2019-04-21T09:35:24.035Z,38.30
2019-04-21T09:38:42.063Z,38.80
2019-04-21T09:42:46.980Z,39.30
2019-04-21T09:52:44.268Z,41.10
2019-04-21T09:55:58.202Z,41.20
2019-04-21T09:59:19.728Z,41.30
2019-04-21T10:03:12.474Z,40.40
2019-04-21T10:06:33.050Z,41.90
2019-04-21T10:08:08.203Z,40.30
2019-04-21T10:13:56.879Z,41.30
2019-04-21T10:21:34.019Z,42.40
2019-04-21T10:24:04.015Z,42.30
2019-04-21T10:28:03.192Z,43.50
2019-04-21T10:34:27.286Z,45.30
2019-04-21T10:37:42.800Z,44.80
2019-04-21T10:40:37.760Z,44.00
2019-04-21T10:43:55.510Z,44.40
2019-04-21T10:47:09.297Z,44.20
2019-04-21T10:50:31.459Z,45.10
2019-04-21T10:54:13.772Z,45.70
2019-04-21T10:57:46.832Z,43.70
2019-04-21T11:00:51.547Z,43.50
2019-04-21T11:09:06.956Z,44.10
2019-04-21T11:16:23.379Z,41.10
2019-04-21T11:20:04.626Z,41.60
2019-04-21T11:23:16.657Z,42.70
2019-04-21T11:26:40.043Z,41.00
2019-04-21T11:33:57.537Z,41.90
2019-04-21T11:37:24.024Z,42.00
2019-04-21T11:40:34.139Z,41.80
2019-04-21T11:44:01.383Z,39.30
2019-04-21T11:47:20.476Z,41.10
2019-04-21T11:57:17.647Z,40.20
2019-04-21T12:04:16.102Z,39.30
2019-04-21T12:07:31.185Z,39.90
2019-04-21T12:11:18.482Z,40.60
2019-04-21T12:14:36.569Z,34.40
2019-04-21T12:17:30.097Z,36.80
2019-04-21T12:20:41.473Z,36.90
2019-04-21T12:23:58.493Z,37.20
2019-04-21T12:27:37.947Z,39.40
2019-04-21T12:30:51.617Z,37.50
2019-04-21T12:33:54.064Z,37.70
2019-04-21T12:40:14.730Z,37.50
2019-04-21T12:43:21.220Z,36.90
2019-04-21T12:50:25.689Z,36.10
2019-04-21T12:53:37.198Z,36.60
2019-04-21T12:56:43.246Z,38.20
2019-04-21T12:59:58.568Z,39.50
2019-04-21T13:02:58.374Z,38.40
2019-04-21T13:09:44.307Z,37.50
2019-04-21T13:16:57.328Z,38.60
2019-04-21T13:20:01.262Z,38.70
2019-04-21T13:23:23.114Z,37.70
2019-04-21T13:26:27.076Z,36.30
2019-04-21T13:29:43.966Z,37.40
2019-04-21T13:39:33.077Z,38.20
2019-04-21T13:42:52.253Z,37.50
2019-04-21T13:46:18.778Z,38.00
2019-04-21T13:49:39.287Z,38.30
2019-04-21T13:52:51.033Z,39.70
2019-04-21T13:56:32.340Z,38.00
2019-04-21T13:59:44.387Z,38.50
2019-04-21T14:02:52.514Z,39.50
2019-04-21T14:09:40.292Z,39.50
2019-04-21T14:16:42.224Z,39.00
2019-04-21T14:19:53.171Z,40.40
2019-04-21T14:27:02.688Z,39.60
2019-04-21T14:29:41.860Z,41.40
2019-04-21T14:36:24.133Z,40.50
2019-04-21T14:41:56.522Z,39.50
2019-04-21T14:44:51.191Z,40.60
2019-04-21T14:48:04.998Z,39.30
2019-04-21T14:51:29.253Z,40.70
2019-04-21T14:54:48.898Z,39.40
2019-04-21T15:05:59.537Z,40.20
2019-04-21T15:09:25.388Z,43.20
2019-04-21T15:12:56.217Z,41.20
2019-04-21T15:20:17.820Z,42.00
2019-04-21T15:23:46.606Z,43.00
2019-04-21T15:26:58.948Z,42.30
2019-04-21T15:30:44.700Z,41.50
2019-04-21T15:33:49.575Z,39.20
2019-04-21T15:37:29.064Z,40.40
2019-04-21T15:40:37.703Z,41.40
2019-04-21T16:02:38.518Z,40.60
2019-04-21T16:06:07.546Z,40.40
2019-04-21T16:09:43.971Z,40.50
2019-04-21T16:12:58.105Z,41.10
2019-04-21T16:27:21.469Z,43.20
2019-04-21T17:25:37.042Z,49.50
2019-04-21T17:29:18.756Z,48.10
2019-04-21T18:02:04.075Z,48.20
2019-04-21T18:20:03.778Z,49.00
2019-04-21T18:24:10.387Z,48.20
2019-04-21T18:27:38.636Z,48.80
2019-04-21T18:31:14.731Z,49.10
2019-04-21T18:45:55.289Z,49.80
2019-04-21T18:52:09.941Z,49.60
2019-04-21T19:01:07.308Z,50.60
2019-04-21T19:13:27.944Z,50.70
2019-04-21T19:17:29.182Z,51.90
2019-04-21T19:25:23.882Z,51.20
2019-04-21T19:43:05.482Z,52.00
2019-04-21T19:54:57.182Z,52.10
2019-04-21T20:02:32.281Z,52.20
2019-04-21T20:06:10.468Z,52.70
2019-04-21T20:09:32.127Z,52.10
2019-04-21T20:13:14.884Z,52.00
2019-04-21T20:24:16.442Z,52.30
2019-04-21T20:28:15.675Z,52.70
2019-04-21T20:31:45.983Z,52.50
2019-04-21T20:35:46.501Z,52.70
2019-04-21T20:42:01.816Z,52.10
2019-04-21T20:42:42.742Z,52.30
2019-04-21T21:02:17.213Z,52.70
2019-04-21T21:05:45.780Z,52.90
2019-04-21T21:09:04.795Z,52.80
2019-04-21T21:13:14.515Z,52.60
2019-04-21T21:14:57.635Z,53.40
2019-04-21T21:18:35.582Z,53.60
2019-04-21T21:21:45.648Z,53.20
2019-04-21T21:25:00.917Z,53.30
2019-04-21T21:27:26.759Z,54.30
2019-04-21T21:31:07.361Z,53.70
2019-04-21T21:34:16.700Z,53.70
2019-04-21T21:37:49.030Z,54.00
2019-04-21T21:45:02.767Z,54.70
2019-04-21T21:48:18.781Z,54.80
2019-04-21T21:51:10.078Z,55.20
2019-04-21T21:57:49.609Z,56.10
2019-04-21T22:01:06.435Z,55.60
2019-04-21T22:04:09.220Z,56.10
2019-04-21T22:07:37.174Z,56.10
2019-04-21T22:15:24.877Z,56.20
2019-04-21T22:18:39.214Z,56.80
2019-04-21T22:22:05.151Z,57.10
2019-04-21T22:25:10.006Z,57.20
2019-04-21T22:28:20.149Z,57.80
2019-04-21T22:32:02.730Z,58.10
2019-04-21T22:35:50.376Z,58.10
2019-04-21T22:39:09.187Z,58.60
2019-04-21T22:46:01.217Z,59.00
2019-04-21T22:49:52.677Z,59.50
2019-04-21T22:57:02.634Z,60.20
2019-04-21T23:03:23.957Z,61.20
2019-04-21T23:10:09.347Z,62.10
2019-04-21T23:13:11.240Z,62.10
2019-04-21T23:16:19.110Z,62.60
2019-04-21T23:19:42.184Z,62.70
2019-04-21T23:22:52.721Z,63.20
2019-04-21T23:30:13.233Z,63.40
2019-04-21T23:33:15.506Z,64.10
2019-04-21T23:36:36.061Z,64.60
2019-04-21T23:40:35.187Z,65.00
2019-04-21T23:43:52.899Z,65.00
2019-04-21T23:46:36.905Z,65.50
2019-04-21T23:52:27.852Z,66.20
2019-04-21T23:59:38.694Z,67.10
